Time;durP1;ratioP1;P1;durP2;ratioP2;P2;SDS_P1;SDS_P2;PMS_P1;PMS_P2;Temp;Humidity;BMP_temperature;BMP_pressure;BME280_temperature;BME280_humidity;BME280_pressure;Samples;Min_cycle;Max_cycle;Signal;HPM_P1;HPM_P2
2022/06/15 00:01:07;;;;;;;5.93;4.80;;;16.50;99.90;;;;;;5055112;28;20440;-81
2022/06/15 00:03:36;;;;;;;7.90;5.13;;;16.40;99.90;;;;;;5053691;28;20964;-81
2022/06/15 00:06:18;;;;;;;6.20;5.60;;;16.40;99.90;;;;;;5053102;28;20947;-81
2022/06/15 00:08:46;;;;;;;8.00;5.43;;;16.30;99.90;;;;;;5054446;28;20944;-81
2022/06/15 00:11:18;;;;;;;7.00;4.97;;;16.20;99.90;;;;;;5054798;28;20410;-81
2022/06/15 00:13:45;;;;;;;8.27;5.70;;;16.20;99.90;;;;;;5054575;28;20414;-81
2022/06/15 00:16:11;;;;;;;7.03;5.23;;;16.20;99.90;;;;;;5054265;28;20406;-81
2022/06/15 00:18:37;;;;;;;7.37;5.50;;;16.10;99.90;;;;;;5054768;28;20410;-81
2022/06/15 00:21:04;;;;;;;6.20;5.57;;;16.10;99.90;;;;;;5054340;28;20901;-81
2022/06/15 00:23:31;;;;;;;6.03;5.30;;;16.10;99.90;;;;;;5054098;28;20453;-81
2022/06/15 00:25:57;;;;;;;8.23;5.70;;;16.00;99.90;;;;;;5052487;28;20501;-81
2022/06/15 00:28:24;;;;;;;6.67;5.27;;;16.00;99.90;;;;;;5054280;28;20540;-81
2022/06/15 00:30:50;;;;;;;7.67;5.73;;;16.00;99.90;;;;;;5054562;28;20465;-81
2022/06/15 00:33:19;;;;;;;7.37;5.57;;;15.90;99.90;;;;;;5053010;28;20414;-81
2022/06/15 00:35:55;;;;;;;6.80;5.50;;;15.90;99.90;;;;;;5054130;28;20779;-81
2022/06/15 00:38:22;;;;;;;6.50;5.77;;;15.90;99.90;;;;;;5053411;28;21049;-81
2022/06/15 00:40:47;;;;;;;6.83;5.80;;;15.90;99.90;;;;;;5054059;28;20497;-81
2022/06/15 00:43:13;;;;;;;7.13;6.13;;;15.90;99.90;;;;;;5054331;28;20506;-81
2022/06/15 00:45:39;;;;;;;6.73;5.27;;;15.80;99.90;;;;;;5052438;28;20175;-81
2022/06/15 00:48:06;;;;;;;8.80;5.47;;;15.70;99.90;;;;;;5052652;28;20700;-81
2022/06/15 00:50:32;;;;;;;9.30;5.60;;;15.70;99.90;;;;;;5052617;28;20458;-81
2022/06/15 00:53:05;;;;;;;6.97;5.40;;;15.70;99.90;;;;;;5054107;28;20472;-81
2022/06/15 00:55:33;;;;;;;10.70;6.33;;;15.70;99.90;;;;;;5053598;28;20168;-81
2022/06/15 00:58:02;;;;;;;7.17;5.60;;;15.70;99.90;;;;;;5053491;28;20450;-81
2022/06/15 01:00:28;;;;;;;7.03;5.37;;;15.70;99.90;;;;;;5052579;28;20414;-81
2022/06/15 01:02:54;;;;;;;6.30;5.30;;;15.70;99.90;;;;;;5053651;28;20414;-81
2022/06/15 01:05:24;;;;;;;10.33;6.37;;;15.70;99.90;;;;;;5053635;28;20186;-81
2022/06/15 01:08:34;;;;;;;7.63;5.47;;;15.60;99.90;;;;;;5053110;28;20206;-81
2022/06/15 01:11:10;;;;;;;6.23;5.63;;;15.60;99.90;;;;;;4975809;28;20476;-81
2022/06/15 01:13:47;;;;;;;6.53;5.00;;;15.60;99.90;;;;;;5045333;28;20414;-81
2022/06/15 01:16:40;;;;;;;10.83;5.83;;;15.60;99.90;;;;;;5053207;28;20410;-81
2022/06/15 01:19:24;;;;;;;7.73;5.70;;;15.50;99.90;;;;;;5052394;28;20426;-82
2022/06/15 01:22:27;;;;;;;7.90;5.77;;;15.60;99.90;;;;;;5053889;28;20409;-81
2022/06/15 01:25:28;;;;;;;8.07;6.30;;;15.50;99.90;;;;;;5053401;28;20406;-82
2022/06/15 01:28:33;;;;;;;9.90;6.73;;;15.40;99.90;;;;;;5052755;28;20446;-81
2022/06/15 01:31:40;;;;;;;9.73;5.63;;;15.40;99.90;;;;;;5053500;28;20829;-81
2022/06/15 01:34:27;;;;;;;9.80;5.30;;;15.30;99.90;;;;;;5045052;28;20422;-81
2022/06/15 01:37:21;;;;;;;6.80;5.43;;;15.30;99.90;;;;;;5053158;28;20480;-82
2022/06/15 01:40:07;;;;;;;7.67;6.10;;;15.30;99.90;;;;;;5056789;28;20430;-82
2022/06/15 01:42:43;;;;;;;7.37;5.67;;;15.20;99.90;;;;;;5057249;28;20411;-82
2022/06/15 01:45:15;;;;;;;8.87;6.07;;;15.20;99.90;;;;;;5056260;28;20410;-82
2022/06/15 01:47:44;;;;;;;7.87;5.90;;;15.10;99.90;;;;;;5056634;28;20433;-82
2022/06/15 01:50:17;;;;;;;7.87;5.57;;;15.00;99.90;;;;;;5054726;28;20516;-82
2022/06/15 01:52:51;;;;;;;8.40;6.07;;;14.90;99.90;;;;;;5055501;28;20418;-82
2022/06/15 01:55:27;;;;;;;8.70;6.07;;;14.90;99.90;;;;;;5056376;28;20445;-82
2022/06/15 01:57:57;;;;;;;7.47;5.83;;;14.80;99.90;;;;;;5056149;28;20517;-82
2022/06/15 02:00:23;;;;;;;8.80;7.03;;;14.80;99.90;;;;;;5054458;28;20418;-82
2022/06/15 02:03:09;;;;;;;8.03;6.27;;;14.70;99.90;;;;;;5054655;28;20528;-82
2022/06/15 02:05:48;;;;;;;8.37;7.57;;;14.70;99.90;;;;;;5055220;28;20417;-82
2022/06/15 02:08:44;;;;;;;9.80;6.87;;;14.70;99.90;;;;;;5054592;28;20819;-82
2022/06/15 02:11:15;;;;;;;7.80;6.73;;;14.60;99.90;;;;;;5040119;28;20488;-82
2022/06/15 02:14:05;;;;;;;11.40;7.60;;;14.60;99.90;;;;;;5054598;28;20415;-82
2022/06/15 02:16:41;;;;;;;7.93;6.97;;;14.60;99.90;;;;;;5054157;28;20505;-82
2022/06/15 02:19:11;;;;;;;8.80;6.77;;;14.50;99.90;;;;;;5054350;28;20410;-82
2022/06/15 02:21:39;;;;;;;7.90;6.60;;;14.40;99.90;;;;;;5055348;28;20833;-82
2022/06/15 02:24:06;;;;;;;8.07;6.57;;;14.40;99.90;;;;;;5055347;28;20460;-82
2022/06/15 02:26:35;;;;;;;9.87;6.63;;;14.40;99.90;;;;;;5054377;28;20422;-81
2022/06/15 02:29:10;;;;;;;7.90;6.20;;;14.40;99.90;;;;;;5055499;28;20480;-82
2022/06/15 02:31:37;;;;;;;8.00;5.77;;;14.30;99.90;;;;;;5054984;28;20533;-82
2022/06/15 02:34:03;;;;;;;10.40;7.23;;;14.30;99.90;;;;;;5055303;28;20415;-82
2022/06/15 02:36:32;;;;;;;11.30;6.43;;;14.30;99.90;;;;;;5053217;28;20423;-82
2022/06/15 02:38:58;;;;;;;14.03;6.43;;;14.30;99.90;;;;;;5055110;28;20418;-82
2022/06/15 02:41:24;;;;;;;9.60;6.27;;;14.30;99.90;;;;;;5053287;28;20418;-81
2022/06/15 02:43:53;;;;;;;8.43;6.47;;;14.30;99.90;;;;;;5054186;28;20414;-82
2022/06/15 02:46:20;;;;;;;9.43;6.43;;;14.30;99.90;;;;;;5053845;28;20614;-82
2022/06/15 02:48:46;;;;;;;8.33;5.73;;;14.20;99.90;;;;;;5053264;28;20424;-81
2022/06/15 02:51:41;;;;;;;7.00;5.80;;;14.20;99.90;;;;;;5051867;28;20424;-81
2022/06/15 02:54:22;;;;;;;8.30;6.17;;;14.20;99.90;;;;;;5051683;28;20480;-80
2022/06/15 02:56:48;;;;;;;8.73;6.00;;;14.20;99.90;;;;;;5051400;28;20426;-81
2022/06/15 02:59:14;;;;;;;9.30;5.93;;;14.20;99.90;;;;;;5050105;28;20425;-80
2022/06/15 03:01:39;;;;;;;8.23;6.67;;;14.20;99.90;;;;;;5050381;28;20497;-80
2022/06/15 03:04:05;;;;;;;10.97;6.80;;;14.20;99.90;;;;;;5051393;28;20189;-80
2022/06/15 03:06:31;;;;;;;8.10;6.20;;;14.20;99.90;;;;;;5051203;28;20184;-81
2022/06/15 03:08:57;;;;;;;9.73;6.00;;;14.10;99.90;;;;;;5051381;28;20538;-81
2022/06/15 03:11:24;;;;;;;12.63;6.40;;;14.10;99.90;;;;;;5050161;28;20275;-81
2022/06/15 03:13:50;;;;;;;7.57;6.33;;;14.00;99.90;;;;;;5051507;28;20920;-81
2022/06/15 03:16:17;;;;;;;9.70;6.17;;;14.10;99.90;;;;;;5049631;28;20446;-81
2022/06/15 03:18:42;;;;;;;9.03;6.33;;;14.10;99.90;;;;;;5051608;28;20509;-80
2022/06/15 03:21:08;;;;;;;7.70;6.43;;;14.10;99.90;;;;;;5049861;28;20905;-80
2022/06/15 03:23:35;;;;;;;10.93;6.67;;;14.00;99.90;;;;;;5051294;28;20176;-81
2022/06/15 03:26:02;;;;;;;9.10;6.10;;;14.10;99.90;;;;;;5049339;28;20183;-80
2022/06/15 03:28:29;;;;;;;10.03;6.93;;;14.10;99.90;;;;;;5051234;28;20533;-81
2022/06/15 03:30:54;;;;;;;8.20;6.23;;;14.10;99.90;;;;;;5049621;28;20466;-81
2022/06/15 03:33:20;;;;;;;9.87;6.70;;;14.10;99.90;;;;;;5051348;28;20414;-80
2022/06/15 03:35:47;;;;;;;8.40;7.20;;;14.00;99.90;;;;;;5050721;28;20611;-80
2022/06/15 03:38:13;;;;;;;7.63;5.90;;;14.00;99.90;;;;;;5050971;28;20433;-80
2022/06/15 03:40:41;;;;;;;7.60;6.00;;;14.00;99.90;;;;;;5049760;28;20472;-80
2022/06/15 03:43:07;;;;;;;9.93;6.80;;;13.90;99.90;;;;;;5048840;28;20205;-80
2022/06/15 03:45:33;;;;;;;8.40;6.53;;;14.00;99.90;;;;;;5050855;28;20428;-81
2022/06/15 03:47:59;;;;;;;10.13;6.47;;;14.00;99.90;;;;;;5050705;28;20442;-81
2022/06/15 03:50:26;;;;;;;10.10;6.50;;;13.90;99.90;;;;;;5050334;28;20222;-81
2022/06/15 03:52:52;;;;;;;11.20;6.73;;;14.00;99.90;;;;;;5051285;28;20237;-81
2022/06/15 03:55:19;;;;;;;10.60;6.10;;;13.90;99.90;;;;;;5052614;28;20509;-81
2022/06/15 03:57:45;;;;;;;8.77;6.50;;;13.90;99.90;;;;;;5050478;28;20450;-82
2022/06/15 04:00:14;;;;;;;9.87;6.23;;;13.90;99.90;;;;;;5052629;28;20422;-81
2022/06/15 04:02:40;;;;;;;7.57;6.10;;;14.00;99.90;;;;;;5055994;28;20797;-81
2022/06/15 04:05:06;;;;;;;9.77;6.50;;;14.00;99.90;;;;;;5054087;28;20424;-80
2022/06/15 04:10:16;;;;;;;8.20;6.20;;;14.00;99.90;;;;;;5055907;28;20472;-80
2022/06/15 04:12:43;;;;;;;12.10;6.77;;;14.10;99.90;;;;;;5055432;28;20418;-80
2022/06/15 04:15:10;;;;;;;9.57;6.20;;;14.20;99.90;;;;;;5055332;28;20183;-80
2022/06/15 04:17:36;;;;;;;9.33;6.23;;;14.10;99.90;;;;;;5055104;28;20437;-81
2022/06/15 04:20:47;;;;;;;8.80;5.57;;;14.10;99.90;;;;;;5055291;28;20449;-81
2022/06/15 04:22:48;;;;;;;7.10;5.90;;;14.20;99.90;;;;;;5044455;28;20528;-81
2022/06/15 04:25:14;;;;;;;8.03;6.20;;;14.20;99.90;;;;;;5055107;28;20509;-80
2022/06/15 04:27:40;;;;;;;11.73;7.53;;;14.20;99.90;;;;;;5079649;22;20220;-79
2022/06/15 04:30:06;;;;;;;11.13;6.90;;;14.30;99.90;;;;;;5046559;28;20208;-79
2022/06/15 04:32:32;;;;;;;7.50;6.27;;;14.30;99.90;;;;;;5054742;28;20229;-79
2022/06/15 04:34:58;;;;;;;8.30;5.80;;;14.40;99.90;;;;;;5055035;28;20960;-80
2022/06/15 04:37:24;;;;;;;12.90;7.10;;;14.50;99.90;;;;;;5055016;28;20430;-80
2022/06/15 04:39:50;;;;;;;8.87;6.10;;;14.60;99.90;;;;;;5055120;28;20188;-79
2022/06/15 04:42:16;;;;;;;8.87;6.20;;;14.60;99.90;;;;;;5055196;28;20184;-80
2022/06/15 04:44:41;;;;;;;15.27;7.00;;;14.70;99.90;;;;;;5055144;28;20555;-80
2022/06/15 04:47:09;;;;;;;9.20;6.47;;;14.80;99.90;;;;;;5054727;28;20206;-79
2022/06/15 04:49:35;;;;;;;10.50;6.90;;;14.80;99.90;;;;;;5054968;28;20222;-80
2022/06/15 04:52:00;;;;;;;7.80;6.80;;;14.90;99.90;;;;;;5054603;28;20508;-79
2022/06/15 04:54:27;;;;;;;7.40;6.40;;;15.00;99.90;;;;;;5056104;28;20265;-79
2022/06/15 04:56:53;;;;;;;6.53;5.50;;;15.00;99.90;;;;;;5055059;28;20431;-79
2022/06/15 04:59:19;;;;;;;11.80;6.57;;;15.10;99.90;;;;;;5055077;28;20468;-79
2022/06/15 05:01:45;;;;;;;9.43;6.57;;;15.20;99.90;;;;;;5054903;28;20422;-80
2022/06/15 05:04:14;;;;;;;7.83;6.07;;;15.20;99.90;;;;;;5054955;28;20214;-80
2022/06/15 05:06:41;;;;;;;9.03;5.80;;;15.30;99.90;;;;;;5055204;28;20674;-80
2022/06/15 05:09:11;;;;;;;10.00;6.70;;;15.40;99.90;;;;;;5054960;28;20458;-80
2022/06/15 05:11:37;;;;;;;9.30;6.63;;;15.40;99.90;;;;;;5055068;28;20782;-80
2022/06/15 05:14:03;;;;;;;9.87;6.13;;;15.50;99.90;;;;;;5053327;28;20426;-79
2022/06/15 05:16:29;;;;;;;8.40;6.63;;;15.60;99.90;;;;;;5054637;28;20434;-79
2022/06/15 05:18:55;;;;;;;8.17;6.17;;;15.70;99.90;;;;;;5054824;28;20425;-79
2022/06/15 05:21:21;;;;;;;9.40;6.03;;;15.80;99.90;;;;;;5054876;28;20176;-79
2022/06/15 05:23:47;;;;;;;7.97;6.43;;;15.90;99.90;;;;;;5054425;28;20420;-80
2022/06/15 05:26:13;;;;;;;8.33;6.10;;;16.00;99.90;;;;;;5054041;28;20430;-79
2022/06/15 05:28:41;;;;;;;10.53;5.70;;;16.10;99.90;;;;;;5053661;28;20191;-79
2022/06/15 05:31:16;;;;;;;9.73;7.00;;;16.20;99.90;;;;;;5053439;28;20960;-79
2022/06/15 05:33:42;;;;;;;11.23;6.10;;;16.30;99.90;;;;;;5053966;28;20413;-79
2022/06/15 05:36:11;;;;;;;8.00;7.00;;;16.40;99.90;;;;;;5053298;28;20759;-79
2022/06/15 05:38:37;;;;;;;8.57;6.20;;;16.50;99.90;;;;;;5053837;28;20475;-79
2022/06/15 05:41:03;;;;;;;10.83;7.03;;;16.60;99.90;;;;;;5053664;28;20418;-80
2022/06/15 05:43:31;;;;;;;10.33;6.57;;;16.70;99.90;;;;;;5053104;28;20836;-79
2022/06/15 05:45:56;;;;;;;8.93;5.43;;;16.80;99.90;;;;;;5052949;28;20233;-79
2022/06/15 05:48:22;;;;;;;10.47;6.33;;;16.90;99.90;;;;;;5052861;28;20457;-79
2022/06/15 05:50:48;;;;;;;9.40;6.70;;;17.00;99.90;;;;;;5053439;28;20204;-79
2022/06/15 05:53:14;;;;;;;9.40;6.70;;;17.20;99.90;;;;;;5053213;28;20172;-79
2022/06/15 05:55:40;;;;;;;9.13;6.67;;;17.40;99.90;;;;;;5052772;28;20172;-79
2022/06/15 05:58:06;;;;;;;7.27;6.40;;;17.30;99.90;;;;;;5052440;28;20419;-79
2022/06/15 06:00:32;;;;;;;8.50;6.63;;;17.40;99.90;;;;;;5052250;28;20190;-79
2022/06/15 06:02:58;;;;;;;7.13;6.40;;;17.50;99.90;;;;;;5052878;28;20646;-79
2022/06/15 06:05:24;;;;;;;9.43;7.13;;;17.60;99.90;;;;;;5052791;28;20454;-79
2022/06/15 06:07:50;;;;;;;10.20;7.33;;;17.70;99.90;;;;;;5052360;28;20442;-79
2022/06/15 06:10:16;;;;;;;10.90;8.20;;;17.80;99.90;;;;;;5052252;28;21037;-79
2022/06/15 06:12:42;;;;;;;11.17;7.10;;;17.90;99.90;;;;;;5052635;28;20457;-80
2022/06/15 06:15:09;;;;;;;10.23;6.60;;;17.90;99.90;;;;;;5052651;28;20643;-80
2022/06/15 06:17:34;;;;;;;12.93;6.53;;;18.10;99.90;;;;;;5052490;28;20476;-80
2022/06/15 06:20:00;;;;;;;12.20;7.20;;;18.20;99.90;;;;;;5055819;28;20418;-80
2022/06/15 06:22:26;;;;;;;8.60;6.80;;;18.30;99.90;;;;;;5055283;28;20188;-80
2022/06/15 06:24:52;;;;;;;8.07;6.43;;;18.40;99.90;;;;;;5053272;28;20211;-79
2022/06/15 06:27:18;;;;;;;7.93;6.80;;;18.50;99.90;;;;;;5052065;28;20207;-78
2022/06/15 06:29:44;;;;;;;10.80;6.97;;;18.60;99.90;;;;;;5052583;28;20269;-79
2022/06/15 06:32:14;;;;;;;13.23;7.90;;;18.70;99.90;;;;;;5052767;28;20760;-79
2022/06/15 06:34:39;;;;;;;11.27;6.27;;;18.90;99.90;;;;;;5053158;28;20426;-80
2022/06/15 06:37:07;;;;;;;10.80;7.03;;;19.00;99.90;;;;;;5052464;28;20438;-80
2022/06/15 06:39:35;;;;;;;7.77;6.40;;;19.00;99.90;;;;;;5053051;28;20536;-79
2022/06/15 06:42:04;;;;;;;8.20;5.90;;;19.10;99.90;;;;;;5052626;28;20414;-79
2022/06/15 06:44:30;;;;;;;6.00;5.13;;;19.20;99.90;;;;;;5053111;28;20422;-80
2022/06/15 06:46:55;;;;;;;9.30;6.27;;;19.30;99.90;;;;;;5052417;28;20457;-80
2022/06/15 06:49:23;;;;;;;8.00;6.30;;;19.30;99.90;;;;;;5052501;28;20207;-79
2022/06/15 06:51:49;;;;;;;9.03;5.90;;;19.40;99.90;;;;;;5052122;28;20176;-76
2022/06/15 06:54:18;;;;;;;9.20;6.20;;;19.50;99.90;;;;;;5052339;28;20414;-84
2022/06/15 06:56:43;;;;;;;8.60;5.50;;;19.60;99.90;;;;;;5052334;28;20442;-80
2022/06/15 06:59:12;;;;;;;8.83;5.90;;;19.70;99.90;;;;;;5052722;28;20514;-80
2022/06/15 07:01:40;;;;;;;6.57;5.17;;;19.80;99.90;;;;;;5053173;28;20259;-75
2022/06/15 07:04:07;;;;;;;8.07;5.80;;;19.90;99.90;;;;;;5052399;28;20421;-83
2022/06/15 07:06:33;;;;;;;6.83;4.83;;;20.00;99.90;;;;;;5053051;28;20818;-83
2022/06/15 07:08:59;;;;;;;9.13;5.50;;;20.10;99.90;;;;;;5053016;28;20425;-84
2022/06/15 07:11:25;;;;;;;8.20;5.53;;;20.20;99.90;;;;;;5053063;28;20172;-83
2022/06/15 07:13:51;;;;;;;8.13;4.97;;;20.30;99.90;;;;;;5052800;28;20176;-83
2022/06/15 07:16:19;;;;;;;7.47;4.63;;;20.40;99.90;;;;;;5052048;28;20193;-83
2022/06/15 07:18:46;;;;;;;9.50;4.70;;;20.40;99.90;;;;;;5052575;28;20442;-84
2022/06/15 07:21:18;;;;;;;8.63;5.13;;;20.50;99.90;;;;;;5052451;28;20441;-83
2022/06/15 07:23:46;;;;;;;7.60;4.63;;;20.60;99.90;;;;;;5051887;28;20475;-83
2022/06/15 07:26:16;;;;;;;5.67;4.37;;;20.80;99.90;;;;;;5051284;28;20450;-82
2022/06/15 07:28:42;;;;;;;7.13;4.33;;;20.80;99.90;;;;;;5050294;28;20519;-83
2022/06/15 07:31:09;;;;;;;6.83;4.30;;;20.90;99.90;;;;;;5050195;28;20465;-82
2022/06/15 07:33:36;;;;;;;6.33;4.27;;;21.00;99.90;;;;;;5050287;28;20472;-82
2022/06/15 07:36:03;;;;;;;7.00;4.70;;;21.10;99.90;;;;;;5055581;28;20464;-83
2022/06/15 07:38:29;;;;;;;6.93;4.67;;;21.20;99.90;;;;;;5063244;28;20436;-84
2022/06/15 07:40:57;;;;;;;13.20;4.87;;;21.20;99.90;;;;;;5060447;28;20418;-83
2022/06/15 07:43:24;;;;;;;6.60;5.10;;;21.30;99.90;;;;;;5058781;28;20577;-83
2022/06/15 07:45:50;;;;;;;5.47;3.93;;;21.40;99.90;;;;;;5058116;28;20436;-83
2022/06/15 07:51:00;;;;;;;7.53;4.77;;;21.60;99.90;;;;;;5057934;28;20705;-80
2022/06/15 07:53:26;;;;;;;6.73;4.80;;;21.70;99.90;;;;;;5056675;28;20943;-80
2022/06/15 07:55:53;;;;;;;4.87;4.07;;;21.80;99.90;;;;;;5055803;28;20438;-80
2022/06/15 07:58:20;;;;;;;7.40;5.20;;;22.00;99.90;;;;;;5056052;28;20426;-79
2022/06/15 08:00:48;;;;;;;9.33;5.47;;;22.10;99.90;;;;;;5056188;28;20418;-79
2022/06/15 08:03:15;;;;;;;10.27;6.07;;;22.30;99.90;;;;;;5056198;28;20426;-79
2022/06/15 08:05:45;;;;;;;8.80;5.63;;;22.40;99.90;;;;;;5055550;28;20417;-79
2022/06/15 08:08:15;;;;;;;6.03;4.40;;;22.60;99.90;;;;;;5055355;28;20874;-78
2022/06/15 08:10:40;;;;;;;5.70;5.17;;;22.80;99.90;;;;;;5055598;28;20461;-78
2022/06/15 08:13:08;;;;;;;7.20;5.40;;;23.30;99.90;;;;;;5055616;28;20417;-80
2022/06/15 08:15:35;;;;;;;8.27;5.33;;;24.50;99.90;;;;;;5055192;28;20187;-79
2022/06/15 08:18:05;;;;;;;7.70;4.40;;;25.80;99.90;;;;;;5055233;28;20419;-79
2022/06/15 08:20:59;;;;;;;5.80;4.60;;;27.00;99.90;;;;;;5055340;28;20836;-79
2022/06/15 08:23:28;;;;;;;6.13;3.27;;;29.30;99.90;;;;;;5047727;28;20818;-79
2022/06/15 08:25:58;;;;;;;5.83;3.90;;;29.30;99.90;;;;;;5051593;28;21823;-80
2022/06/15 08:28:29;;;;;;;5.50;4.00;;;29.90;96.10;;;;;;5050394;28;20864;-79
2022/06/15 08:30:55;;;;;;;6.23;3.20;;;30.70;90.20;;;;;;5047141;28;20461;-79
2022/06/15 08:33:23;;;;;;;5.50;3.10;;;31.40;84.60;;;;;;5055997;28;20512;-79
2022/06/15 08:35:50;;;;;;;5.73;3.67;;;32.10;81.00;;;;;;5054350;28;20425;-80
2022/06/15 08:38:18;;;;;;;4.53;3.47;;;32.90;73.60;;;;;;5045993;28;20422;-79
2022/06/15 08:40:57;;;;;;;7.63;3.03;;;33.70;67.90;;;;;;5053994;28;20434;-80
2022/06/15 08:43:41;;;;;;;7.77;3.30;;;34.50;62.70;;;;;;5054191;28;20452;-80
2022/06/15 08:46:19;;;;;;;4.87;3.07;;;35.20;58.90;;;;;;5055152;28;21185;-80
2022/06/15 08:49:05;;;;;;;4.30;2.90;;;35.80;54.00;;;;;;5054505;28;20453;-80
2022/06/15 08:51:44;;;;;;;5.10;3.73;;;36.30;51.20;;;;;;5054861;28;20415;-80
2022/06/15 08:54:18;;;;;;;6.20;3.40;;;37.00;48.00;;;;;;5054967;28;20436;-80
2022/06/15 08:56:48;;;;;;;4.83;3.00;;;37.40;47.00;;;;;;5054146;28;20438;-81
2022/06/15 08:59:25;;;;;;;6.10;3.20;;;37.90;46.10;;;;;;5054270;28;20464;-80
2022/06/15 09:02:03;;;;;;;4.57;3.47;;;38.20;42.90;;;;;;5054557;28;20449;-81
2022/06/15 09:04:46;;;;;;;4.27;3.00;;;38.40;42.70;;;;;;5054158;28;20418;-80
2022/06/15 09:07:15;;;;;;;4.77;2.90;;;39.00;42.50;;;;;;5055473;28;20441;-81
2022/06/15 09:10:13;;;;;;;3.70;2.60;;;39.40;39.30;;;;;;5055935;28;20465;-80
2022/06/15 09:13:11;;;;;;;9.73;2.90;;;39.90;40.10;;;;;;5055188;28;20780;-80
2022/06/15 09:15:52;;;;;;;4.37;2.50;;;39.80;36.40;;;;;;5054946;28;20836;-83
2022/06/15 09:18:21;;;;;;;6.97;2.97;;;40.30;37.40;;;;;;5055389;28;20421;-77
2022/06/15 09:20:52;;;;;;;5.57;3.33;;;41.20;36.80;;;;;;5054888;28;20426;-78
2022/06/15 09:23:33;;;;;;;3.77;2.20;;;41.30;37.20;;;;;;5055730;28;20429;-78
2022/06/15 09:26:09;;;;;;;3.80;2.90;;;41.60;35.40;;;;;;5055318;28;20809;-78
2022/06/15 09:28:45;;;;;;;2.97;2.50;;;41.90;34.70;;;;;;5055158;28;20448;-78
2022/06/15 09:31:53;;;;;;;3.97;2.30;;;42.40;35.00;;;;;;5054974;28;20465;-78
2022/06/15 09:34:31;;;;;;;4.73;2.90;;;42.80;33.70;;;;;;5018918;28;20183;-77
2022/06/15 09:36:58;;;;;;;4.60;2.50;;;43.20;32.50;;;;;;5054689;28;20206;-77
2022/06/15 09:39:28;;;;;;;4.20;2.60;;;43.60;31.90;;;;;;5055188;28;20179;-78
2022/06/15 09:42:13;;;;;;;5.07;2.83;;;43.80;31.80;;;;;;5052070;28;20179;-76
2022/06/15 09:44:40;;;;;;;4.25;2.60;;;44.10;31.10;;;;;;5051804;28;20183;-76
2022/06/15 09:47:31;;;;;;;7.53;2.67;;;44.30;29.60;;;;;;5051193;28;20207;-75
2022/06/15 09:50:26;;;;;;;7.07;2.80;;;44.40;30.00;;;;;;5051618;28;20202;-76
2022/06/15 09:53:03;;;;;;;8.77;2.35;;;44.60;30.80;;;;;;5047351;28;20187;-75
2022/06/15 09:55:54;;;;;;;4.95;2.53;;;44.80;30.00;;;;;;5051406;28;20181;-75
2022/06/15 09:58:25;;;;;;;3.22;2.60;;;45.30;29.70;;;;;;5050972;28;20525;-76
2022/06/15 10:00:51;;;;;;;3.88;2.20;;;45.50;28.70;;;;;;5051483;28;20202;-76
2022/06/15 10:03:28;;;;;;;4.70;2.72;;;45.80;29.30;;;;;;5051255;28;20178;-76
2022/06/15 10:06:00;;;;;;;4.43;2.58;;;46.00;27.90;;;;;;5051170;28;20198;-76
2022/06/15 10:08:26;;;;;;;4.57;2.75;;;46.00;27.80;;;;;;5051612;28;20269;-74
2022/06/15 10:10:58;;;;;;;4.05;2.55;;;46.10;27.60;;;;;;5051110;28;20309;-75
2022/06/15 10:13:26;;;;;;;4.50;2.35;;;46.30;27.20;;;;;;5051412;28;20210;-74
2022/06/15 10:15:55;;;;;;;4.68;2.20;;;46.30;27.30;;;;;;5053662;28;20187;-81
2022/06/15 10:18:42;;;;;;;4.32;2.08;;;46.30;26.90;;;;;;5057587;28;20171;-82
2022/06/15 10:21:20;;;;;;;5.20;2.00;;;46.50;26.80;;;;;;5061870;28;20237;-83
2022/06/15 10:24:01;;;;;;;4.15;2.45;;;45.90;27.20;;;;;;5060650;28;20182;-83
2022/06/15 10:26:29;;;;;;;3.40;2.40;;;45.30;27.20;;;;;;5058822;28;20587;-83
2022/06/15 10:28:57;;;;;;;4.93;2.20;;;44.80;27.60;;;;;;5059703;28;20201;-84
2022/06/15 10:31:32;;;;;;;4.85;2.17;;;44.80;29.00;;;;;;5072085;23;20233;-82
2022/06/15 10:34:17;;;;;;;4.70;2.63;;;44.50;28.30;;;;;;5048574;28;20735;-80
2022/06/15 10:36:43;;;;;;;3.83;2.30;;;44.50;28.70;;;;;;5053109;28;20540;-81
2022/06/15 10:39:22;;;;;;;2.85;1.83;;;44.80;27.80;;;;;;5052995;28;20254;-81
2022/06/15 10:41:49;;;;;;;2.60;2.00;;;44.50;27.20;;;;;;5052931;28;20195;-81
2022/06/15 10:44:29;;;;;;;3.70;2.35;;;43.90;27.10;;;;;;5053269;28;20166;-80
2022/06/15 10:47:22;;;;;;;3.30;2.40;;;43.40;27.20;;;;;;5052441;28;20224;-80
2022/06/15 10:49:55;;;;;;;5.25;2.20;;;43.00;27.90;;;;;;5052431;28;20229;-81
2022/06/15 10:52:42;;;;;;;4.50;2.53;;;42.10;27.40;;;;;;5052325;28;20549;-81
2022/06/15 11:04:11;;;;;;;4.50;2.97;;;40.70;26.90;;;;;;5052627;28;20415;-80
2022/06/15 11:06:43;;;;;;;4.30;2.20;;;39.10;28.40;;;;;;5051858;28;20436;-80
2022/06/15 11:09:26;;;;;;;3.57;2.10;;;38.00;29.50;;;;;;5067528;28;20422;-80
2022/06/15 11:11:52;;;;;;;5.93;2.30;;;37.40;30.20;;;;;;5070027;28;20973;-81
2022/06/15 11:14:49;;;;;;;6.40;2.67;;;36.90;31.50;;;;;;5071631;28;20422;-80
2022/06/15 11:20:27;;;;;;;7.30;2.40;;;;;;;;;;5056417;28;21023;-80
2022/06/15 11:22:59;;;;;;;4.00;2.63;;;33.80;31.50;;;;;;5055946;28;20410;-80
2022/06/15 11:25:42;;;;;;;4.20;2.07;;;33.60;31.90;;;;;;5055881;28;20418;-81
2022/06/15 11:28:16;;;;;;;4.70;2.97;;;33.10;32.80;;;;;;5056074;28;20414;-82
2022/06/15 11:31:10;;;;;;;5.53;2.27;;;32.60;34.30;;;;;;5051535;28;20573;-81
2022/06/15 11:33:42;;;;;;;4.20;2.30;;;31.90;34.00;;;;;;5051932;28;20543;-81
2022/06/15 11:36:25;;;;;;;4.67;2.67;;;31.70;36.20;;;;;;5054060;28;20942;-80
2022/06/15 11:39:03;;;;;;;6.37;3.07;;;31.50;36.70;;;;;;5055944;28;20401;-82
2022/06/15 11:41:34;;;;;;;4.37;3.37;;;31.40;36.10;;;;;;5050664;28;20892;-81
2022/06/15 11:44:06;;;;;;;4.80;2.40;;;31.40;36.40;;;;;;5035866;28;20418;-80
2022/06/15 11:46:52;;;;;;;3.43;2.47;;;31.30;37.40;;;;;;5035535;28;20411;-78
2022/06/15 11:49:33;;;;;;;3.83;2.60;;;31.10;37.50;;;;;;5035211;28;20458;-79
2022/06/15 11:52:07;;;;;;;4.43;2.23;;;30.90;38.30;;;;;;5035481;28;20430;-78
2022/06/15 11:54:44;;;;;;;4.67;2.50;;;30.90;36.30;;;;;;5035232;28;20453;-81
2022/06/15 11:57:29;;;;;;;4.07;3.13;;;31.20;36.20;;;;;;5034815;28;20414;-79
2022/06/15 12:00:26;;;;;;;5.47;2.37;;;31.50;37.20;;;;;;5034686;28;20426;-80
2022/06/15 12:03:28;;;;;;;5.50;2.53;;;31.60;36.50;;;;;;5034642;28;20470;-80
2022/06/15 12:06:23;;;;;;;5.80;3.00;;;31.70;37.30;;;;;;5034596;28;20417;-81
2022/06/15 12:09:02;;;;;;;5.23;2.70;;;31.50;36.70;;;;;;5035157;28;20494;-79
2022/06/15 12:14:36;;;;;;;4.23;2.73;;;31.10;37.70;;;;;;5035169;28;20525;-79
2022/06/15 12:17:26;;;;;;;2.90;2.23;;;31.00;38.70;;;;;;5034779;28;20941;-78
2022/06/15 12:19:57;;;;;;;5.03;2.53;;;31.10;37.50;;;;;;5034783;28;20406;-78
2022/06/15 12:22:31;;;;;;;3.20;2.50;;;31.10;36.80;;;;;;5034377;28;20403;-77
2022/06/15 12:25:25;;;;;;;3.93;2.70;;;31.20;38.00;;;;;;5034837;28;20395;-80
2022/06/15 12:27:58;;;;;;;5.33;2.47;;;31.20;37.80;;;;;;5034422;28;20538;-81
2022/06/15 12:30:47;;;;;;;5.77;2.63;;;31.10;38.30;;;;;;5033737;28;20531;-81
2022/06/15 12:33:15;;;;;;;5.03;2.60;;;31.20;38.20;;;;;;5034595;28;20422;-81
2022/06/15 12:36:06;;;;;;;4.77;2.60;;;31.10;38.10;;;;;;5033998;28;20789;-82
2022/06/15 12:38:59;;;;;;;3.80;2.73;;;31.10;39.00;;;;;;5034150;28;20414;-80
2022/06/15 12:44:18;;;;;;;3.70;2.77;;;31.00;37.70;;;;;;5033983;28;20801;-81
2022/06/15 12:46:47;;;;;;;4.67;2.87;;;31.10;38.40;;;;;;5033528;28;20523;-80
2022/06/15 12:49:34;;;;;;;3.73;2.60;;;31.10;38.60;;;;;;5033955;28;20407;-80
2022/06/15 12:52:37;;;;;;;4.10;2.53;;;31.10;38.80;;;;;;5033702;28;20949;-80
2022/06/15 12:55:12;;;;;;;5.57;2.60;;;30.80;38.10;;;;;;5032591;28;20426;-80
2022/06/15 12:58:08;;;;;;;4.00;2.47;;;30.80;38.40;;;;;;5032400;28;20414;-81
2022/06/15 13:00:41;;;;;;;3.30;2.40;;;30.80;38.80;;;;;;5033454;28;20442;-81
2022/06/15 13:03:22;;;;;;;4.10;2.63;;;30.90;39.00;;;;;;5032518;28;20926;-81
2022/06/15 13:05:47;;;;;;;4.20;2.20;;;31.00;39.80;;;;;;5033345;28;20425;-79
2022/06/15 13:08:24;;;;;;;4.73;2.60;;;31.00;40.40;;;;;;5032519;28;20423;-80
2022/06/15 13:10:53;;;;;;;5.10;2.90;;;31.00;39.00;;;;;;5032081;28;20223;-79
2022/06/15 13:13:27;;;;;;;7.17;3.10;;;31.10;38.50;;;;;;5033572;28;20415;-81
2022/06/15 13:15:54;;;;;;;6.30;2.67;;;31.10;38.40;;;;;;5034093;28;20502;-81
2022/06/15 13:18:48;;;;;;;5.03;2.50;;;31.50;39.50;;;;;;5036093;28;20413;-83
2022/06/15 13:22:02;;;;;;;6.03;3.33;;;31.90;36.20;;;;;;5035483;28;20493;-82
2022/06/15 13:24:28;;;;;;;3.67;2.87;;;33.30;35.50;;;;;;5029516;28;20530;-83
2022/06/15 13:27:00;;;;;;;5.57;2.70;;;34.60;33.90;;;;;;5031277;28;20518;-82
2022/06/15 13:29:31;;;;;;;4.63;2.40;;;35.30;34.20;;;;;;5034378;28;20210;-83
2022/06/15 13:32:00;;;;;;;6.40;2.33;;;35.60;34.00;;;;;;5034263;28;21172;-83
2022/06/15 13:34:34;;;;;;;4.07;2.63;;;35.10;31.50;;;;;;5034431;28;20464;-83
2022/06/15 13:37:22;;;;;;;3.50;2.67;;;34.50;32.60;;;;;;5034903;28;20497;-82